Time;durP1;ratioP1;P1;durP2;ratioP2;P2;SDS_P1;SDS_P2;PMS_P1;PMS_P2;Temp;Humidity;BMP_temperature;BMP_pressure;BME280_temperature;BME280_humidity;BME280_pressure;Samples;Min_cycle;Max_cycle;Signal;HPM_P1;HPM_P2
2020/12/23 00:00:13;;;;;;;18.85;8.98;;;;;;;7.09;100.00;101265.47;6235742;28;20041;-67
2020/12/23 00:03:15;;;;;;;15.25;8.90;;;;;;;7.07;100.00;101264.63;6238071;28;20046;-70
2020/12/23 00:06:16;;;;;;;12.80;8.25;;;;;;;7.09;100.00;101263.69;6235076;28;20111;-68
2020/12/23 00:09:17;;;;;;;17.77;8.05;;;;;;;7.08;100.00;101269.81;6235204;28;20050;-68
2020/12/23 00:12:18;;;;;;;18.30;8.77;;;;;;;7.08;100.00;101269.81;6237603;28;20417;-71
2020/12/23 00:15:18;;;;;;;18.20;8.32;;;;;;;7.09;100.00;101268.94;6235475;28;20050;-70
2020/12/23 00:18:20;;;;;;;16.00;8.32;;;;;;;7.10;100.00;101262.78;6237067;28;20053;-70
2020/12/23 00:21:21;;;;;;;13.73;7.63;;;;;;;7.10;100.00;101252.34;6234878;28;20525;-70
2020/12/23 00:24:22;;;;;;;13.75;7.97;;;;;;;7.07;100.00;101248.97;6236783;28;20074;-70
2020/12/23 00:27:23;;;;;;;17.58;7.65;;;;;;;7.06;100.00;101248.09;6234322;28;20124;-70
2020/12/23 00:30:24;;;;;;;16.45;8.77;;;;;;;7.05;100.00;101248.16;6235729;28;20045;-70
2020/12/23 00:33:25;;;;;;;13.00;7.97;;;;;;;7.08;100.00;101250.66;6235840;28;20045;-69
2020/12/23 00:36:26;;;;;;;18.70;8.00;;;;;;;7.06;100.00;101255.94;6235562;28;20136;-69
2020/12/23 00:39:27;;;;;;;12.45;7.55;;;;;;;7.05;100.00;101254.25;6235596;28;20054;-70
2020/12/23 00:42:28;;;;;;;16.27;8.07;;;;;;;7.04;100.00;101249.03;6235563;28;20580;-70
2020/12/23 00:45:29;;;;;;;12.65;7.63;;;;;;;7.05;100.00;101242.94;6236171;28;20050;-70
2020/12/23 00:48:31;;;;;;;12.30;7.90;;;;;;;7.03;100.00;101237.75;6235128;28;20095;-70
2020/12/23 00:51:32;;;;;;;14.35;7.55;;;;;;;7.02;100.00;101243.88;6235109;28;20052;-68
2020/12/23 00:54:32;;;;;;;20.58;8.10;;;;;;;7.02;100.00;101238.66;6236273;28;20545;-69
2020/12/23 00:57:33;;;;;;;14.65;6.95;;;;;;;7.05;100.00;101235.94;6234174;28;20049;-70
2020/12/23 01:00:34;;;;;;;23.65;9.38;;;;;;;7.00;100.00;101247.44;6236069;28;20128;-70
2020/12/23 01:03:36;;;;;;;14.20;8.27;;;;;;;7.06;100.00;101255.09;6234216;28;20049;-69
2020/12/23 01:06:37;;;;;;;13.80;6.95;;;;;;;7.04;100.00;101252.53;6233711;28;20056;-70
2020/12/23 01:09:37;;;;;;;16.42;7.63;;;;;;;7.01;100.00;101254.38;6236182;28;20042;-70
2020/12/23 01:12:38;;;;;;;13.82;7.53;;;;;;;7.02;100.00;101251.72;6234289;28;20077;-70
2020/12/23 01:15:39;;;;;;;14.25;6.90;;;;;;;7.04;100.00;101252.53;6235925;28;20199;-68
2020/12/23 01:18:41;;;;;;;12.70;6.65;;;;;;;7.05;100.00;101237.72;6233051;28;20049;-69
2020/12/23 01:21:43;;;;;;;15.15;7.18;;;;;;;7.03;100.00;101253.41;6234798;28;20092;-70
2020/12/23 01:24:44;;;;;;;13.07;6.47;;;;;;;7.03;100.00;101245.56;6235338;28;20053;-69
2020/12/23 01:27:45;;;;;;;21.15;6.50;;;;;;;7.05;100.00;101248.16;6234323;28;20057;-69
2020/12/23 01:30:46;;;;;;;17.30;7.63;;;;;;;7.03;100.00;101248.19;6235960;28;20046;-69
2020/12/23 01:33:48;;;;;;;15.88;6.85;;;;;;;7.03;100.00;101258.63;6234626;28;20061;-69
2020/12/23 01:36:49;;;;;;;13.75;7.03;;;;;;;7.04;100.00;101264.72;6232993;28;20080;-70
2020/12/23 01:39:50;;;;;;;13.73;5.78;;;;;;;7.04;100.00;101252.53;6227241;28;20046;-70
2020/12/23 01:42:51;;;;;;;14.32;6.35;;;;;;;7.02;100.00;101238.66;6223250;28;20072;-70
2020/12/23 01:45:52;;;;;;;12.50;6.45;;;;;;;7.02;100.00;101243.88;6222486;28;20073;-70
2020/12/23 01:48:54;;;;;;;10.43;6.13;;;;;;;7.03;100.00;101237.75;6222481;28;20056;-69
2020/12/23 01:51:54;;;;;;;16.25;5.90;;;;;;;7.00;100.00;101239.63;6233045;28;20452;-68
2020/12/23 01:54:55;;;;;;;12.18;6.43;;;;;;;7.02;100.00;101235.19;6247056;28;20049;-70
2020/12/23 01:57:57;;;;;;;12.48;6.40;;;;;;;7.04;100.00;101230.75;6246798;28;20580;-70
2020/12/23 02:00:59;;;;;;;13.70;6.15;;;;;;;7.02;100.00;101224.72;6246520;28;20042;-70
2020/12/23 02:04:00;;;;;;;10.40;5.38;;;;;;;7.02;100.00;101233.41;6246777;28;20430;-70
2020/12/23 02:07:02;;;;;;;9.80;5.22;;;;;;;7.04;100.00;101220.28;6246490;28;20072;-70
2020/12/23 02:10:05;;;;;;;13.70;5.80;;;;;;;7.02;100.00;101228.19;6246582;28;20560;-70
2020/12/23 02:13:06;;;;;;;12.88;5.75;;;;;;;7.01;100.00;101226.50;6246745;28;20049;-70
2020/12/23 02:16:08;;;;;;;10.48;5.10;;;;;;;7.05;100.00;101237.72;6246311;28;20086;-69
2020/12/23 02:19:09;;;;;;;12.55;6.20;;;;;;;7.03;100.00;101235.13;6246249;28;20049;-70
2020/12/23 02:22:10;;;;;;;17.75;6.70;;;;;;;7.02;100.00;101236.03;6246303;28;20053;-69
2020/12/23 02:25:12;;;;;;;19.92;6.47;;;;;;;7.01;100.00;101244.78;6246618;28;20156;-69
2020/12/23 02:28:13;;;;;;;13.68;6.35;;;;;;;7.01;100.00;101250.00;6246101;28;20045;-70
2020/12/23 02:31:14;;;;;;;10.45;5.75;;;;;;;7.02;100.00;101253.47;6246297;28;20045;-70
2020/12/23 02:34:15;;;;;;;11.73;6.40;;;;;;;7.01;100.00;101252.63;6246009;28;20072;-70
2020/12/23 02:37:17;;;;;;;15.10;8.10;;;;;;;7.02;100.00;101259.56;6246440;28;20049;-70
2020/12/23 02:40:18;;;;;;;11.43;6.15;;;;;;;7.06;100.00;101266.41;6245824;28;20049;-70
2020/12/23 02:43:19;;;;;;;15.90;5.97;;;;;;;7.04;100.00;101259.50;6246589;28;20061;-70
2020/12/23 02:46:20;;;;;;;13.77;5.47;;;;;;;7.06;100.00;101252.47;6245793;28;20068;-69
2020/12/23 02:49:21;;;;;;;16.17;5.40;;;;;;;7.07;100.00;101251.56;6245775;28;20041;-70
2020/12/23 02:52:22;;;;;;;11.43;5.50;;;;;;;7.06;100.00;101242.03;6249268;28;20533;-70
2020/12/23 02:55:24;;;;;;;12.80;5.57;;;;;;;7.05;100.00;101238.56;6251044;28;20045;-70
2020/12/23 02:58:25;;;;;;;10.13;5.05;;;;;;;7.05;100.00;101233.34;6250895;28;20418;-70
2020/12/23 03:01:26;;;;;;;18.23;5.40;;;;;;;7.05;100.00;101240.31;6250693;28;20056;-71
2020/12/23 03:04:27;;;;;;;11.57;5.22;;;;;;;7.06;100.00;101228.97;6241496;28;20077;-70
2020/12/23 03:07:28;;;;;;;14.80;5.45;;;;;;;7.04;100.00;101217.69;6236136;28;20478;-70
2020/12/23 03:10:29;;;;;;;10.80;4.88;;;;;;;7.04;100.00;101217.69;6237522;28;20132;-70
2020/12/23 03:13:30;;;;;;;7.63;4.57;;;;;;;7.02;100.00;101212.50;6241151;28;20050;-70
2020/12/23 03:16:32;;;;;;;13.55;4.90;;;;;;;7.02;100.00;101214.28;6237497;28;20046;-70
2020/12/23 03:19:33;;;;;;;8.75;5.32;;;;;;;7.02;100.00;101220.34;6236909;28;20049;-70
2020/12/23 03:22:34;;;;;;;16.77;6.38;;;;;;;7.03;100.00;101218.59;6237659;28;20041;-70
2020/12/23 03:25:35;;;;;;;8.98;5.38;;;;;;;7.06;100.00;101215.91;6236424;28;20060;-70
2020/12/23 03:28:36;;;;;;;12.07;5.88;;;;;;;7.02;100.00;101209.06;6236906;28;20057;-70
2020/12/23 03:31:37;;;;;;;9.43;5.13;;;;;;;7.03;100.00;101205.53;6235368;28;20092;-70
2020/12/23 03:34:38;;;;;;;13.05;6.28;;;;;;;7.00;100.00;101196.03;6250219;28;20136;-70
2020/12/23 03:37:39;;;;;;;10.07;6.07;;;;;;;6.99;100.00;101189.09;6250009;28;20103;-70
2020/12/23 03:40:40;;;;;;;13.65;6.47;;;;;;;6.99;100.00;101189.09;6249688;28;20045;-70
2020/12/23 03:43:41;;;;;;;13.98;6.07;;;;;;;7.01;100.00;101189.06;6250368;28;20052;-70
2020/12/23 03:46:42;;;;;;;11.80;6.03;;;;;;;6.96;100.00;101196.19;6249321;28;20053;-70
2020/12/23 03:49:43;;;;;;;14.02;6.47;;;;;;;6.96;100.00;101183.97;6249938;28;20046;-69
2020/12/23 03:52:43;;;;;;;13.15;6.05;;;;;;;6.95;100.00;101176.16;6250079;28;20050;-70
2020/12/23 03:55:45;;;;;;;19.52;7.00;;;;;;;6.92;100.00;101171.91;6249782;28;20072;-68
2020/12/23 03:58:46;;;;;;;13.65;7.32;;;;;;;6.90;100.00;101178.91;6248932;28;20045;-70
2020/12/23 04:01:47;;;;;;;20.45;6.85;;;;;;;6.88;100.00;101179.88;6249807;28;20045;-70
2020/12/23 04:04:48;;;;;;;14.05;6.40;;;;;;;6.85;100.00;101180.81;6249608;28;20056;-69
2020/12/23 04:07:48;;;;;;;30.63;7.35;;;;;;;6.82;100.00;101180.94;6249443;28;20052;-70
2020/12/23 04:10:50;;;;;;;14.32;7.03;;;;;;;6.82;100.00;101183.56;6249242;28;20049;-68
2020/12/23 04:13:51;;;;;;;11.95;6.35;;;;;;;6.82;100.00;101176.56;6248180;28;20087;-68
2020/12/23 04:16:52;;;;;;;16.23;6.72;;;;;;;6.81;100.00;101173.97;6248798;28;20049;-70
2020/12/23 04:19:52;;;;;;;15.23;7.10;;;;;;;6.80;100.00;101164.44;6249041;28;20049;-68
2020/12/23 04:22:53;;;;;;;20.92;6.53;;;;;;;6.79;100.00;101168.81;6248890;28;20053;-68
2020/12/23 04:25:55;;;;;;;11.23;5.93;;;;;;;6.81;100.00;101177.47;6248962;28;20092;-70
2020/12/23 04:28:56;;;;;;;14.80;6.85;;;;;;;6.77;100.00;101175.00;6248593;28;20056;-68
2020/12/23 04:31:57;;;;;;;15.25;7.00;;;;;;;6.76;100.00;101179.34;6249301;28;20053;-68
2020/12/23 04:35:03;;;;;;;13.10;7.07;;;;;;;6.77;100.00;101170.63;6264128;23;20472;-73
2020/12/23 04:38:04;;;;;;;12.32;6.57;;;;;;;6.77;100.00;101175.00;6223588;28;20050;-71
2020/12/23 04:41:06;;;;;;;13.77;7.40;;;;;;;6.76;100.00;101183.72;6223623;28;20104;-73
2020/12/23 04:44:07;;;;;;;13.10;6.72;;;;;;;6.76;100.00;101175.88;6224013;28;20053;-73
2020/12/23 04:47:12;;;;;;;16.05;7.32;;;;;;;6.73;100.00;101171.63;6223599;28;20049;-73
2020/12/23 04:50:14;;;;;;;14.82;7.20;;;;;;;6.75;100.00;101167.19;6223923;28;20049;-71
2020/12/23 04:53:15;;;;;;;14.45;7.20;;;;;;;6.77;100.00;101169.78;6223870;28;20050;-71
2020/12/23 04:56:18;;;;;;;18.80;7.38;;;;;;;6.79;100.00;101167.97;6223638;28;20061;-71
2020/12/23 04:59:19;;;;;;;11.73;6.63;;;;;;;6.79;100.00;101167.97;6222981;28;20038;-71
2020/12/23 05:02:20;;;;;;;15.43;7.32;;;;;;;6.74;100.00;101167.25;6224033;28;20400;-71
2020/12/23 05:05:20;;;;;;;13.48;7.38;;;;;;;6.72;100.00;101172.53;6223603;28;20143;-70
2020/12/23 05:08:21;;;;;;;11.95;6.68;;;;;;;6.72;100.00;101164.69;6223175;28;20059;-71
2020/12/23 05:11:23;;;;;;;18.77;7.40;;;;;;;6.70;100.00;101160.41;6222975;28;20411;-71
2020/12/23 05:14:27;;;;;;;13.45;6.50;;;;;;;6.73;100.00;101158.56;6222837;28;20096;-71
2020/12/23 05:17:30;;;;;;;13.15;6.13;;;;;;;6.74;100.00;101168.09;6223129;28;20530;-71
2020/12/23 05:20:31;;;;;;;13.93;7.18;;;;;;;6.74;100.00;101156.81;6222801;28;20045;-70
2020/12/23 05:23:35;;;;;;;10.55;5.70;;;;;;;6.77;100.00;101154.97;6223188;28;20458;-71
2020/12/23 05:26:39;;;;;;;15.30;7.70;;;;;;;6.74;100.00;101151.59;6222673;28;20116;-71
2020/12/23 05:29:45;;;;;;;15.02;6.50;;;;;;;6.77;100.00;101149.75;6221987;28;20045;-71
2020/12/23 05:32:47;;;;;;;15.45;6.82;;;;;;;6.74;100.00;101160.28;6223098;28;20053;-70
2020/12/23 05:35:48;;;;;;;15.95;6.65;;;;;;;6.72;100.00;101156.88;6222822;28;20050;-71
2020/12/23 05:38:49;;;;;;;11.32;6.05;;;;;;;6.80;100.00;101149.63;6222431;28;20057;-71
2020/12/23 05:41:51;;;;;;;14.95;6.30;;;;;;;6.77;100.00;101151.50;6222774;28;20414;-70
2020/12/23 05:44:52;;;;;;;9.48;5.85;;;;;;;6.83;100.00;101148.69;6222760;28;20418;-71
2020/12/23 05:47:53;;;;;;;18.25;6.78;;;;;;;6.78;100.00;101159.28;6222367;28;20046;-71
2020/12/23 05:50:55;;;;;;;13.80;5.75;;;;;;;6.78;100.00;101159.28;6222416;28;20133;-71
2020/12/23 05:53:57;;;;;;;16.23;6.57;;;;;;;6.75;100.00;101164.59;6222591;28;20053;-71
2020/12/23 05:57:03;;;;;;;12.73;6.32;;;;;;;6.79;100.00;101152.28;6222021;28;20054;-71
2020/12/23 06:00:04;;;;;;;12.98;6.13;;;;;;;6.81;100.00;101160.91;6222111;28;20104;-72
2020/12/23 06:03:18;;;;;;;11.90;6.00;;;;;;;6.75;100.00;101154.13;6222585;28;20141;-71
2020/12/23 06:06:25;;;;;;;13.90;6.95;;;;;;;6.76;100.00;101153.22;6222152;28;20084;-71
2020/12/23 06:09:35;;;;;;;16.00;7.10;;;;;;;6.76;100.00;101145.38;6222108;28;20050;-71
2020/12/23 06:12:42;;;;;;;14.95;7.10;;;;;;;6.79;100.00;101147.06;6222194;28;20046;-72
2020/12/23 06:15:54;;;;;;;14.55;6.30;;;;;;;6.80;100.00;101139.16;6222393;28;20062;-71
2020/12/23 06:18:59;;;;;;;18.92;6.95;;;;;;;6.80;100.00;101147.00;6221738;28;20057;-70
2020/12/23 06:22:00;;;;;;;11.45;6.75;;;;;;;6.81;100.00;101135.69;6221847;28;20057;-71
2020/12/23 06:25:01;;;;;;;13.15;6.88;;;;;;;6.80;100.00;101125.25;6221621;28;20058;-70
2020/12/23 06:28:06;;;;;;;13.80;6.97;;;;;;;6.79;100.00;101134.84;6221563;28;20204;-70
2020/12/23 06:31:08;;;;;;;14.60;7.00;;;;;;;6.83;100.00;101133.00;6221531;28;20053;-71
2020/12/23 06:34:13;;;;;;;17.83;8.25;;;;;;;6.81;100.00;101130.47;6222100;28;20097;-71
2020/12/23 06:37:15;;;;;;;23.73;8.18;;;;;;;6.82;100.00;101133.91;6221798;28;20056;-71
2020/12/23 06:40:18;;;;;;;17.65;9.05;;;;;;;6.80;100.00;101123.50;6221503;28;20046;-72
2020/12/23 06:43:53;;;;;;;15.43;8.20;;;;;;;6.80;100.00;101128.72;6222083;28;20232;-71
2020/12/23 06:47:07;;;;;;;23.23;10.55;;;;;;;6.79;100.00;101131.41;6221525;28;20112;-71
2020/12/23 06:50:29;;;;;;;16.42;8.98;;;;;;;6.80;100.00;101131.34;6221316;28;20049;-71
2020/12/23 06:53:35;;;;;;;21.00;9.00;;;;;;;6.82;100.00;101131.31;6221946;28;20132;-71
2020/12/23 06:56:44;;;;;;;16.23;8.85;;;;;;;6.83;100.00;101123.41;6221295;28;20052;-71
2020/12/23 06:59:48;;;;;;;16.90;9.57;;;;;;;6.81;100.00;101129.56;6221386;28;20045;-71
2020/12/23 07:02:50;;;;;;;15.98;9.38;;;;;;;6.81;100.00;101135.69;6221445;28;20100;-70
2020/12/23 07:05:51;;;;;;;19.38;10.20;;;;;;;6.83;100.00;101133.84;6220343;28;20050;-71
2020/12/23 07:08:54;;;;;;;17.85;10.57;;;;;;;6.84;100.00;101129.50;6221133;28;20045;-71
2020/12/23 07:11:57;;;;;;;19.67;10.98;;;;;;;6.88;100.00;101125.03;6221445;28;20499;-71
2020/12/23 07:15:09;;;;;;;17.80;11.15;;;;;;;6.86;100.00;101122.47;6221201;28;20050;-71
2020/12/23 07:18:12;;;;;;;21.98;11.80;;;;;;;6.89;100.00;101119.75;6221230;28;20045;-70
2020/12/23 07:21:13;;;;;;;22.95;12.63;;;;;;;6.88;100.00;101123.25;6221029;28;20049;-71
2020/12/23 07:24:15;;;;;;;30.15;14.35;;;;;;;6.90;100.00;101131.91;6221519;28;20049;-71
2020/12/23 07:27:17;;;;;;;27.83;13.55;;;;;;;6.95;100.00;101116.06;6221155;28;20506;-71
2020/12/23 07:30:19;;;;;;;27.58;13.23;;;;;;;6.93;100.00;101121.34;6220708;28;20050;-72
2020/12/23 07:33:21;;;;;;;20.35;11.23;;;;;;;6.91;100.00;101112.72;6221322;28;20054;-72
2020/12/23 07:36:23;;;;;;;28.27;13.43;;;;;;;6.90;100.00;101121.44;6220649;28;20614;-72
2020/12/23 07:39:24;;;;;;;25.02;13.45;;;;;;;6.93;100.00;101123.97;6223801;28;20046;-72
2020/12/23 07:42:25;;;;;;;28.10;14.07;;;;;;;6.88;100.00;101117.19;6224896;28;20128;-72
2020/12/23 07:45:28;;;;;;;29.58;14.05;;;;;;;6.93;100.00;101116.13;6225451;28;20053;-72
2020/12/23 07:48:29;;;;;;;30.60;14.60;;;;;;;7.03;100.00;101109.69;6225038;28;20050;-72
2020/12/23 07:51:30;;;;;;;26.30;14.48;;;;;;;6.89;100.00;101103.22;6225095;28;20103;-72
2020/12/23 07:54:31;;;;;;;30.67;15.32;;;;;;;6.87;100.00;101105.88;6225153;28;20057;-72
2020/12/23 07:57:32;;;;;;;35.33;14.32;;;;;;;6.88;100.00;101099.75;6224731;28;20080;-72
2020/12/23 08:00:36;;;;;;;27.45;13.13;;;;;;;6.97;100.00;101082.94;6219683;28;20046;-72
2020/12/23 08:03:37;;;;;;;27.20;13.65;;;;;;;6.99;100.00;101086.31;6224972;28;20057;-72
2020/12/23 08:06:38;;;;;;;27.98;14.55;;;;;;;6.95;100.00;101087.34;6221518;28;20046;-72
2020/12/23 08:09:39;;;;;;;30.20;14.85;;;;;;;6.90;100.00;101100.53;6218669;28;20115;-73
2020/12/23 08:12:41;;;;;;;27.63;14.23;;;;;;;6.93;100.00;101094.38;6225052;28;20050;-72
2020/12/23 08:15:43;;;;;;;29.13;15.00;;;;;;;6.91;100.00;101088.38;6224827;28;20056;-73
2020/12/23 08:18:44;;;;;;;31.10;15.90;;;;;;;6.96;100.00;101074.25;6224401;28;20054;-72
2020/12/23 08:21:45;;;;;;;32.67;15.95;;;;;;;6.91;100.00;101063.09;6224343;28;20518;-72
2020/12/23 08:24:46;;;;;;;30.42;14.90;;;;;;;6.93;100.00;101063.88;6224731;28;20054;-71
2020/12/23 08:27:49;;;;;;;38.30;15.80;;;;;;;6.94;100.00;101067.34;6224184;28;20447;-72
2020/12/23 08:30:51;;;;;;;31.08;15.32;;;;;;;6.96;100.00;101071.63;6224235;28;20050;-72
2020/12/23 08:33:57;;;;;;;36.88;16.15;;;;;;;6.98;100.00;101071.56;6216105;28;20050;-72
2020/12/23 08:36:58;;;;;;;37.47;16.67;;;;;;;6.99;100.00;101065.44;6223793;28;20430;-71
2020/12/23 08:39:59;;;;;;;30.65;15.88;;;;;;;6.99;100.00;101066.28;6224071;28;20050;-71
2020/12/23 08:43:00;;;;;;;38.00;17.15;;;;;;;7.03;100.00;101064.41;6224058;28;20054;-71
2020/12/23 08:46:02;;;;;;;37.95;15.50;;;;;;;7.07;100.00;101056.44;6224046;28;20426;-72
2020/12/23 08:49:03;;;;;;;32.42;16.92;;;;;;;7.02;100.00;101060.97;6222271;28;20042;-72
2020/12/23 08:52:15;;;;;;;30.83;15.52;;;;;;;7.02;100.00;101055.72;6223920;28;20124;-72
2020/12/23 08:55:17;;;;;;;30.10;15.40;;;;;;;7.06;100.00;101061.72;6223941;28;20503;-72
2020/12/23 08:58:21;;;;;;;38.22;17.38;;;;;;;7.07;100.00;101052.97;6223625;28;20433;-72
2020/12/23 09:01:23;;;;;;;37.85;17.80;;;;;;;7.15;100.00;101058.78;6223445;28;20045;-72
2020/12/23 09:04:30;;;;;;;37.92;16.55;;;;;;;7.16;100.00;101049.19;6223901;28;20057;-72
2020/12/23 09:07:30;;;;;;;35.38;17.02;;;;;;;7.14;100.00;101041.41;6223349;28;20060;-71
2020/12/23 09:10:32;;;;;;;34.47;15.85;;;;;;;7.14;100.00;101040.56;6223515;28;20046;-73
2020/12/23 09:13:33;;;;;;;43.83;17.85;;;;;;;7.19;100.00;101039.50;6223320;28;20053;-72
2020/12/23 09:16:35;;;;;;;33.92;16.70;;;;;;;7.10;100.00;101037.19;6222490;28;20137;-72
2020/12/23 09:19:43;;;;;;;43.55;18.20;;;;;;;7.09;100.00;101030.25;6217683;28;20462;-72
2020/12/23 09:22:47;;;;;;;44.25;17.98;;;;;;;7.11;100.00;101037.13;6211004;28;20077;-71
2020/12/23 09:25:48;;;;;;;40.40;18.23;;;;;;;7.15;100.00;101044.88;6220549;28;20049;-72
2020/12/23 09:28:53;;;;;;;40.92;18.95;;;;;;;7.11;100.00;101038.88;6222078;28;20084;-72
2020/12/23 09:31:55;;;;;;;40.53;17.60;;;;;;;7.12;100.00;101025.75;6223167;28;20056;-72
2020/12/23 09:35:14;;;;;;;48.15;18.67;;;;;;;7.11;100.00;101026.69;6222371;28;20472;-71
2020/12/23 09:38:19;;;;;;;52.00;19.70;;;;;;;7.19;100.00;101021.19;6204374;28;20050;-72
2020/12/23 09:41:20;;;;;;;44.58;19.10;;;;;;;7.20;100.00;101017.66;6218930;28;20054;-70
2020/12/23 09:44:20;;;;;;;40.78;19.15;;;;;;;7.18;100.00;101010.81;6221463;28;20112;-73
2020/12/23 09:47:22;;;;;;;43.05;19.02;;;;;;;7.20;100.00;100995.91;6218045;28;20115;-74
2020/12/23 09:50:23;;;;;;;51.55;19.52;;;;;;;7.20;100.00;100991.53;6222256;28;20046;-74
2020/12/23 09:53:26;;;;;;;45.15;18.90;;;;;;;7.25;100.00;100984.38;6222555;28;20419;-74
2020/12/23 09:56:27;;;;;;;38.15;16.65;;;;;;;7.31;100.00;100978.94;6222449;28;20053;-74
2020/12/23 09:59:27;;;;;;;46.75;19.13;;;;;;;7.38;100.00;100988.25;6221880;28;20050;-74
2020/12/23 10:02:29;;;;;;;41.22;18.77;;;;;;;7.34;100.00;100986.66;6222785;28;20053;-74
2020/12/23 10:05:31;;;;;;;46.60;17.27;;;;;;;7.32;100.00;100980.66;6221872;28;20057;-74
2020/12/23 10:08:32;;;;;;;40.30;17.70;;;;;;;7.35;100.00;100984.88;6222531;28;20069;-74
2020/12/23 10:11:33;;;;;;;45.20;18.30;;;;;;;7.35;100.00;100964.81;6221954;28;20525;-74
2020/12/23 10:14:34;;;;;;;42.97;18.25;;;;;;;7.35;100.00;100961.34;6219852;28;20046;-74
2020/12/23 10:17:37;;;;;;;45.03;18.60;;;;;;;7.35;100.00;100949.13;6221606;28;20056;-75
2020/12/23 10:20:38;;;;;;;43.03;18.15;;;;;;;7.46;100.00;100942.69;6221832;28;20053;-74
2020/12/23 10:23:39;;;;;;;39.35;17.23;;;;;;;7.46;100.00;100933.06;6221980;28;20054;-74
2020/12/23 10:26:42;;;;;;;44.47;18.15;;;;;;;7.54;100.00;100931.03;6221759;28;20045;-74
2020/12/23 10:29:42;;;;;;;38.50;17.33;;;;;;;7.57;100.00;100919.59;6221139;28;20056;-74
2020/12/23 10:32:44;;;;;;;38.03;18.48;;;;;;;7.54;100.00;100912.72;6221889;28;20050;-74
2020/12/23 10:35:45;;;;;;;47.17;19.15;;;;;;;7.58;100.00;100905.59;6251106;22;20113;-71
2020/12/23 10:38:46;;;;;;;45.10;18.25;;;;;;;7.68;100.00;100895.66;6245136;28;20053;-68
2020/12/23 10:41:51;;;;;;;46.60;18.02;;;;;;;7.71;100.00;100885.91;6245429;28;20457;-71
2020/12/23 10:44:51;;;;;;;39.97;16.65;;;;;;;7.72;100.00;100861.47;6245927;28;20061;-68
2020/12/23 10:47:53;;;;;;;37.55;17.17;;;;;;;7.72;100.00;100860.59;6245862;28;20060;-69
2020/12/23 10:50:54;;;;;;;46.45;17.85;;;;;;;7.79;100.00;100857.66;6246029;28;20042;-71
2020/12/23 10:53:55;;;;;;;34.47;15.60;;;;;;;7.84;100.00;100850.50;6246140;28;20655;-69
2020/12/23 10:56:57;;;;;;;38.75;16.05;;;;;;;7.85;100.00;100844.34;6245830;28;20084;-69
2020/12/23 10:59:58;;;;;;;43.17;16.25;;;;;;;7.87;100.00;100837.28;6245565;28;20099;-69
2020/12/23 11:02:59;;;;;;;41.38;16.20;;;;;;;7.92;100.00;100844.09;6246014;28;20430;-71
2020/12/23 11:06:00;;;;;;;34.97;14.70;;;;;;;7.93;100.00;100824.88;6245860;28;20099;-70
2020/12/23 11:09:03;;;;;;;29.08;14.07;;;;;;;7.92;100.00;100833.63;6245600;28;20707;-70
2020/12/23 11:12:04;;;;;;;38.05;14.55;;;;;;;7.88;100.00;100817.22;6247211;28;20049;-72
2020/12/23 11:15:05;;;;;;;32.15;12.70;;;;;;;7.93;100.00;100819.63;6250698;28;20061;-69
2020/12/23 11:18:06;;;;;;;37.20;15.13;;;;;;;8.00;100.00;100811.47;6250678;28;20053;-69
2020/12/23 11:21:07;;;;;;;34.95;14.70;;;;;;;7.95;100.00;100799.47;6250157;28;20041;-71
2020/12/23 11:24:08;;;;;;;30.92;13.98;;;;;;;7.95;100.00;100789.00;6250480;28;20053;-69
2020/12/23 11:27:09;;;;;;;34.88;14.65;;;;;;;8.02;100.00;100791.31;6246992;28;20049;-70
2020/12/23 11:30:10;;;;;;;37.70;14.60;;;;;;;7.96;100.00;100790.75;6230437;28;20100;-69
2020/12/23 11:33:11;;;;;;;37.13;14.93;;;;;;;7.95;100.00;100794.25;6246191;28;20562;-71
2020/12/23 11:36:13;;;;;;;42.45;15.60;;;;;;;7.98;100.00;100786.28;6249870;28;20057;-69
2020/12/23 11:39:14;;;;;;;40.97;16.08;;;;;;;8.00;100.00;100782.69;6249865;28;20048;-69
2020/12/23 11:42:15;;;;;;;51.15;16.65;;;;;;;8.02;100.00;100769.53;6249917;28;20410;-71
2020/12/23 11:45:16;;;;;;;46.75;17.67;;;;;;;7.97;100.00;100764.50;6250006;28;20465;-69
2020/12/23 11:48:18;;;;;;;43.17;15.80;;;;;;;8.16;100.00;100754.09;6249375;28;20080;-71
2020/12/23 11:51:19;;;;;;;44.05;16.77;;;;;;;8.06;100.00;100755.41;6249703;28;20045;-71
2020/12/23 11:54:20;;;;;;;47.30;17.70;;;;;;;8.05;100.00;100746.72;6249931;28;20053;-71
2020/12/23 11:57:21;;;;;;;43.95;16.75;;;;;;;8.12;100.00;100742.88;6249528;28;20045;-70
2020/12/23 12:00:21;;;;;;;39.50;16.52;;;;;;;8.18;100.00;100738.34;6249292;28;20048;-70
2020/12/23 12:03:23;;;;;;;39.88;15.55;;;;;;;8.14;100.00;100727.13;6249967;28;20057;-69
2020/12/23 12:06:24;;;;;;;45.85;15.90;;;;;;;8.24;100.00;100719.72;6249337;28;20057;-70
2020/12/23 12:09:28;;;;;;;38.67;15.60;;;;;;;8.31;100.00;100705.44;6249290;28;20080;-70
2020/12/23 12:12:28;;;;;;;37.15;14.27;;;;;;;8.24;100.00;100710.09;6249338;28;20160;-70
2020/12/23 12:15:29;;;;;;;38.22;14.77;;;;;;;8.23;100.00;100703.19;6249085;28;20050;-70
2020/12/23 12:18:31;;;;;;;37.35;14.60;;;;;;;8.25;100.00;100701.31;6249013;28;20045;-70
2020/12/23 12:21:32;;;;;;;40.25;14.65;;;;;;;8.27;100.00;100701.28;6248850;28;20079;-70
2020/12/23 12:24:32;;;;;;;40.15;14.43;;;;;;;8.35;100.00;100693.91;6247866;28;20061;-70
2020/12/23 12:27:33;;;;;;;39.92;14.82;;;;;;;8.33;100.00;100693.13;6248856;28;20049;-70
2020/12/23 12:30:36;;;;;;;37.53;14.63;;;;;;;8.39;100.00;100701.59;6248678;28;20418;-70
2020/12/23 12:33:37;;;;;;;39.75;14.90;;;;;;;8.47;100.00;100695.16;6249186;28;20059;-70
2020/12/23 12:36:38;;;;;;;35.00;14.68;;;;;;;8.45;100.00;100687.38;6248361;28;20502;-70
2020/12/23 12:39:39;;;;;;;42.67;15.68;;;;;;;8.42;100.00;100684.91;6248635;28;20057;-70
2020/12/23 12:42:40;;;;;;;36.78;13.60;;;;;;;8.54;100.00;100673.00;6248252;28;20053;-70
2020/12/23 12:45:40;;;;;;;38.90;14.57;;;;;;;8.47;100.00;100689.94;6248839;28;20132;-71
2020/12/23 12:48:42;;;;;;;37.97;14.60;;;;;;;8.51;100.00;100671.38;6247900;28;20049;-70
2020/12/23 12:51:43;;;;;;;40.67;15.73;;;;;;;8.55;100.00;100669.47;6248553;28;20053;-70
2020/12/23 12:54:44;;;;;;;32.47;14.23;;;;;;;8.78;100.00;100669.25;6248316;28;20062;-70
2020/12/23 12:57:45;;;;;;;39.90;15.20;;;;;;;8.69;100.00;100660.97;6248319;28;20057;-70
2020/12/23 13:00:46;;;;;;;34.72;13.13;;;;;;;8.63;100.00;100651.66;6247747;28;20041;-70
2020/12/23 13:03:47;;;;;;;41.47;14.27;;;;;;;8.56;100.00;100651.06;6247778;28;20077;-69
2020/12/23 13:06:48;;;;;;;41.75;14.38;;;;;;;8.56;100.00;100644.97;6243903;28;20057;-71
2020/12/23 13:09:49;;;;;;;41.88;14.55;;;;;;;8.62;100.00;100639.44;6243531;28;20053;-69
2020/12/23 13:12:50;;;;;;;48.80;15.68;;;;;;;8.61;100.00;100635.13;6243695;28;20054;-69
2020/12/23 13:15:50;;;;;;;39.85;14.35;;;;;;;8.59;100.00;100637.00;6243784;28;20041;-69
2020/12/23 13:18:52;;;;;;;44.50;15.25;;;;;;;8.63;100.00;100618.44;6243578;28;20053;-71
2020/12/23 13:21:54;;;;;;;47.80;15.70;;;;;;;8.70;100.00;100610.28;6243935;28;20045;-71
2020/12/23 13:24:55;;;;;;;44.28;14.98;;;;;;;8.68;100.00;100614.75;6243437;28;20142;-71
2020/12/23 13:27:56;;;;;;;44.15;15.52;;;;;;;8.76;100.00;100609.97;6243992;28;20053;-71
2020/12/23 13:30:57;;;;;;;38.47;14.23;;;;;;;8.81;100.00;100605.34;6243375;28;20049;-71
2020/12/23 13:33:59;;;;;;;38.95;14.20;;;;;;;8.76;100.00;100599.50;6243614;28;20049;-71
2020/12/23 13:37:00;;;;;;;35.85;13.90;;;;;;;8.87;100.00;100608.53;6241702;28;20063;-71
2020/12/23 13:40:00;;;;;;;42.05;13.98;;;;;;;8.79;100.00;100605.44;6242422;28;20071;-70
2020/12/23 13:43:01;;;;;;;39.63;14.52;;;;;;;8.87;100.00;100591.97;6242756;28;20053;-71
2020/12/23 13:46:02;;;;;;;44.17;13.75;;;;;;;8.81;100.00;100595.75;6242345;28;20064;-71
2020/12/23 13:49:04;;;;;;;34.15;13.27;;;;;;;8.83;100.00;100604.38;6241630;28;20059;-72
2020/12/23 13:52:10;;;;;;;31.88;13.07;;;;;;;8.86;100.00;100606.00;6242587;28;20095;-72